createdAt,value
2023-04-25T00:00:42.551Z,7.400
2023-04-25T00:01:43.333Z,6.900
2023-04-25T00:02:43.745Z,7.800
2023-04-25T00:03:43.984Z,7.300
2023-04-25T00:04:44.175Z,7.600
2023-04-25T00:05:43.224Z,7.000
2023-04-25T00:06:42.988Z,6.800
2023-04-25T00:09:43.464Z,7.300
2023-04-25T00:10:43.232Z,7.600
2023-04-25T00:11:42.963Z,7.200
2023-04-25T00:12:42.658Z,7.000
2023-04-25T00:13:43.458Z,7.100
2023-04-25T00:14:43.342Z,7.000
2023-04-25T00:15:43.147Z,7.200
2023-04-25T00:16:43.393Z,7.000
2023-04-25T00:18:43.206Z,6.900
2023-04-25T00:19:42.945Z,6.600
2023-04-25T00:20:42.765Z,6.400
2023-04-25T00:21:42.535Z,6.900
2023-04-25T00:22:43.309Z,6.700
2023-04-25T00:23:43.126Z,7.000
2023-04-25T00:24:42.817Z,7.600
2023-04-25T00:27:43.112Z,6.800
2023-04-25T00:28:43.160Z,7.100
2023-04-25T00:29:42.906Z,6.700
2023-04-25T00:30:42.653Z,7.500
2023-04-25T00:31:43.684Z,6.600
2023-04-25T00:32:42.703Z,7.200
2023-04-25T00:33:42.852Z,7.000
2023-04-25T00:34:42.560Z,6.800
2023-04-25T00:35:43.325Z,7.100
2023-04-25T00:37:42.775Z,7.100
2023-04-25T00:38:42.612Z,7.300
2023-04-25T00:39:44.632Z,6.500
2023-04-25T00:41:43.273Z,7.300
2023-04-25T00:42:43.108Z,7.300
2023-04-25T00:43:42.936Z,6.300
2023-04-25T00:44:42.674Z,6.600
2023-04-25T00:45:43.442Z,6.600
2023-04-25T00:46:43.253Z,7.200
2023-04-25T00:47:43.377Z,6.800
2023-04-25T00:48:43.489Z,7.200
2023-04-25T00:49:43.234Z,7.500
2023-04-25T00:50:43.264Z,7.100
2023-04-25T00:52:42.792Z,6.800
2023-04-25T00:53:42.524Z,7.000
2023-04-25T00:54:43.382Z,6.600
2023-04-25T00:55:43.103Z,6.800
2023-04-25T00:56:42.850Z,6.700
2023-04-25T00:57:42.642Z,6.800
2023-04-25T00:58:43.441Z,7.000
2023-04-25T01:00:43.181Z,6.900
2023-04-25T01:01:43.362Z,6.400
2023-04-25T01:02:43.442Z,6.900
2023-04-25T01:03:43.364Z,6.500
2023-04-25T01:04:42.609Z,6.800
2023-04-25T01:05:43.501Z,7.000
2023-04-25T01:06:43.259Z,7.100
2023-04-25T01:07:42.984Z,6.500
2023-04-25T01:09:42.840Z,6.300
2023-04-25T01:10:42.696Z,6.200
2023-04-25T01:11:42.476Z,6.600
2023-04-25T01:12:43.258Z,6.300
2023-04-25T01:14:42.820Z,6.400
2023-04-25T01:17:43.621Z,5.900
2023-04-25T01:19:42.476Z,6.100
2023-04-25T01:20:43.235Z,5.900
2023-04-25T01:21:43.055Z,6.100
2023-04-25T01:22:42.815Z,6.200
2023-04-25T01:25:43.103Z,6.500
2023-04-25T01:26:42.873Z,6.400
2023-04-25T01:27:42.594Z,6.800
2023-04-25T01:28:43.358Z,6.400
2023-04-25T01:29:43.109Z,6.400
2023-04-25T01:30:42.892Z,6.900
2023-04-25T01:32:42.837Z,6.500
2023-04-25T01:34:42.510Z,7.100
2023-04-25T01:35:43.420Z,6.900
2023-04-25T01:36:43.503Z,6.900
2023-04-25T01:37:43.230Z,6.100
2023-04-25T01:39:42.701Z,6.700
2023-04-25T01:40:43.521Z,6.600
2023-04-25T01:42:43.040Z,6.200
2023-04-25T01:43:42.953Z,6.700
2023-04-25T01:45:43.473Z,6.200
2023-04-25T01:46:43.561Z,6.200
2023-04-25T01:47:45.894Z,5.900
2023-04-25T01:48:42.818Z,6.600
2023-04-25T01:49:42.596Z,6.900
2023-04-25T01:50:43.371Z,6.300
2023-04-25T01:51:43.071Z,6.700
2023-04-25T01:52:42.927Z,6.500
2023-04-25T01:53:43.545Z,6.900
2023-04-25T01:55:43.175Z,6.500
2023-04-25T01:57:42.610Z,7.000
2023-04-25T01:58:43.379Z,6.700
2023-04-25T01:59:43.164Z,6.800
2023-04-25T02:01:42.769Z,6.900
2023-04-25T02:02:43.119Z,6.700
2023-04-25T02:03:43.570Z,6.800
2023-04-25T02:06:43.292Z,7.100
2023-04-25T02:07:43.097Z,6.700
2023-04-25T02:08:42.875Z,7.500
2023-04-25T02:11:43.324Z,6.800
2023-04-25T02:12:43.130Z,6.400
2023-04-25T02:13:42.956Z,6.500
2023-04-25T02:16:43.631Z,6.300
2023-04-25T02:17:42.723Z,6.500
2023-04-25T02:18:42.574Z,7.100
2023-04-25T02:19:43.543Z,6.400
2023-04-25T02:20:43.213Z,6.500
2023-04-25T02:21:42.935Z,6.800
2023-04-25T02:25:43.173Z,7.000
2023-04-25T02:26:42.958Z,6.700
2023-04-25T02:27:42.631Z,6.900
2023-04-25T02:28:43.471Z,6.700
2023-04-25T02:29:43.288Z,6.800
2023-04-25T02:30:43.060Z,6.600
2023-04-25T02:31:43.162Z,7.400
2023-04-25T02:32:43.239Z,7.100
2023-04-25T02:33:43.272Z,7.100
2023-04-25T02:34:43.070Z,6.800
2023-04-25T02:35:42.835Z,7.400
2023-04-25T02:36:42.639Z,7.600
2023-04-25T02:37:43.412Z,7.300
2023-04-25T02:38:43.189Z,6.600
2023-04-25T02:39:42.995Z,7.200
2023-04-25T02:40:42.752Z,7.600
2023-04-25T02:43:43.224Z,7.800
2023-04-25T02:44:43.100Z,7.100
2023-04-25T02:45:42.884Z,7.600
2023-04-25T02:46:47.598Z,6.800
2023-04-25T02:48:42.678Z,6.300
2023-04-25T02:49:43.475Z,7.300
2023-04-25T02:50:43.310Z,6.400
2023-04-25T02:51:43.031Z,6.800
2023-04-25T02:52:42.875Z,6.800
2023-04-25T02:54:43.545Z,6.600
2023-04-25T02:55:43.992Z,6.700
2023-04-25T02:56:42.811Z,6.900
2023-04-25T02:57:42.563Z,6.500
2023-04-25T02:58:43.349Z,7.200
2023-04-25T03:01:43.087Z,6.700
2023-04-25T03:02:43.202Z,7.000
2023-04-25T03:03:43.788Z,6.600
2023-04-25T03:05:42.957Z,7.900
2023-04-25T03:06:42.818Z,7.200
2023-04-25T03:07:42.733Z,7.300
2023-04-25T03:08:42.560Z,7.100
2023-04-25T03:09:43.415Z,7.400
2023-04-25T03:10:43.386Z,7.900
2023-04-25T03:11:43.432Z,7.200
2023-04-25T03:12:43.193Z,7.700
2023-04-25T03:13:42.954Z,7.300
2023-04-25T03:15:42.616Z,7.700
2023-04-25T03:16:43.548Z,7.700
2023-04-25T03:17:43.413Z,8.100
2023-04-25T03:18:43.365Z,8.500
2023-04-25T03:19:43.084Z,8.100
2023-04-25T03:20:42.960Z,7.900
2023-04-25T03:21:42.737Z,8.200
2023-04-25T03:22:42.536Z,8.700
2023-04-25T03:23:43.397Z,8.300
2023-04-25T03:24:43.155Z,8.500
2023-04-25T03:25:42.941Z,9.000
2023-04-25T03:27:42.523Z,8.300
2023-04-25T03:28:43.251Z,8.600
2023-04-25T03:29:43.060Z,8.400
2023-04-25T03:30:42.856Z,8.100
2023-04-25T03:32:42.655Z,8.100
2023-04-25T03:33:43.476Z,8.100
2023-04-25T03:34:43.215Z,7.900
2023-04-25T03:35:43.041Z,7.600
2023-04-25T03:37:42.617Z,9.200
2023-04-25T03:38:43.442Z,7.900
2023-04-25T03:39:43.232Z,8.300
2023-04-25T03:40:43.048Z,8.400
2023-04-25T03:42:44.495Z,7.700
2023-04-25T03:43:43.406Z,8.500
2023-04-25T03:44:43.122Z,8.500
2023-04-25T03:45:42.893Z,8.400
2023-04-25T03:46:42.810Z,8.500
2023-04-25T03:47:42.574Z,7.500
2023-04-25T03:48:42.611Z,8.700
2023-04-25T03:49:43.459Z,7.700
2023-04-25T03:50:43.276Z,7.700
2023-04-25T03:51:43.034Z,7.900
2023-04-25T03:52:42.740Z,8.000
2023-04-25T03:55:43.599Z,8.000
2023-04-25T03:56:42.490Z,8.100
2023-04-25T03:57:43.284Z,8.400
2023-04-25T03:58:43.043Z,8.500
2023-04-25T04:00:42.609Z,8.300
2023-04-25T04:01:43.465Z,8.500
2023-04-25T04:02:45.265Z,8.500
2023-04-25T04:03:42.776Z,8.700
2023-04-25T04:04:43.887Z,9.700
2023-04-25T04:06:42.560Z,9.000
2023-04-25T04:07:43.363Z,8.300
2023-04-25T04:08:43.172Z,8.500
2023-04-25T04:10:42.880Z,9.500
2023-04-25T04:11:42.641Z,9.000
2023-04-25T04:12:43.382Z,9.000
2023-04-25T04:13:43.099Z,9.700
2023-04-25T04:16:42.899Z,9.200
2023-04-25T04:17:42.762Z,9.500
2023-04-25T04:18:42.612Z,8.500
2023-04-25T04:19:43.328Z,9.600
2023-04-25T04:21:42.947Z,8.900
2023-04-25T04:22:42.810Z,9.300
2023-04-25T04:24:43.340Z,9.400
2023-04-25T04:25:43.170Z,10.600
2023-04-25T04:26:42.931Z,9.500
2023-04-25T04:29:43.410Z,9.700
2023-04-25T04:30:43.224Z,9.500
2023-04-25T04:31:43.256Z,10.100
2023-04-25T04:32:43.325Z,9.300
2023-04-25T04:33:42.628Z,9.100
2023-04-25T04:34:43.407Z,9.300
2023-04-25T04:35:43.192Z,9.500
2023-04-25T04:36:42.898Z,9.800
2023-04-25T04:38:42.593Z,9.200
2023-04-25T04:39:43.378Z,9.000
2023-04-25T04:40:43.168Z,9.500
2023-04-25T04:41:42.827Z,8.700
2023-04-25T04:44:43.296Z,8.200
2023-04-25T04:45:43.147Z,9.300
2023-04-25T04:46:43.059Z,9.000
2023-04-25T04:47:43.273Z,9.100
2023-04-25T04:48:43.279Z,8.800
2023-04-25T04:49:43.141Z,8.600
2023-04-25T04:50:42.935Z,7.600
2023-04-25T04:51:42.715Z,9.000
2023-04-25T04:53:43.393Z,8.300
2023-04-25T04:54:43.171Z,8.300
2023-04-25T04:55:42.945Z,6.900
2023-04-25T04:57:42.478Z,8.500
2023-04-25T04:58:43.264Z,8.700
2023-04-25T04:59:43.092Z,8.400
2023-04-25T05:00:43.899Z,8.200
2023-04-25T05:03:43.336Z,8.300
2023-04-25T05:04:43.339Z,8.000
2023-04-25T05:05:43.360Z,8.300
2023-04-25T05:06:43.095Z,7.700
2023-04-25T05:07:42.596Z,6.900
2023-04-25T05:08:43.425Z,7.200
2023-04-25T05:09:43.132Z,7.700
2023-04-25T05:10:42.946Z,6.800
2023-04-25T05:13:43.155Z,7.500
2023-04-25T05:15:42.996Z,7.500
2023-04-25T05:17:42.826Z,6.800
2023-04-25T05:18:42.795Z,7.100
2023-04-25T05:20:43.372Z,5.900
2023-04-25T05:22:43.106Z,7.200
2023-04-25T05:23:43.037Z,7.200
2023-04-25T05:25:42.625Z,6.700
2023-04-25T05:26:43.407Z,6.700
2023-04-25T05:27:43.214Z,6.400
2023-04-25T05:28:43.061Z,6.900
2023-04-25T05:29:42.826Z,6.600
2023-04-25T05:32:43.966Z,6.500
2023-04-25T05:33:42.901Z,6.900
2023-04-25T05:34:42.646Z,6.400
2023-04-25T05:35:42.752Z,6.400
2023-04-25T05:36:42.648Z,6.200
2023-04-25T05:37:43.412Z,6.100
2023-04-25T05:38:43.159Z,5.200
2023-04-25T05:39:42.903Z,5.600
2023-04-25T05:40:42.789Z,5.800
2023-04-25T05:42:43.425Z,5.400
2023-04-25T05:43:43.160Z,6.200
2023-04-25T05:44:43.051Z,5.800
2023-04-25T05:45:42.894Z,5.900
2023-04-25T05:46:43.416Z,6.400
2023-04-25T05:48:43.235Z,6.200
2023-04-25T05:50:42.691Z,6.400
2023-04-25T05:51:43.424Z,6.600
2023-04-25T05:52:43.348Z,6.800
2023-04-25T05:53:43.150Z,6.600
2023-04-25T05:54:42.858Z,7.500
2023-04-25T05:56:42.592Z,6.300
2023-04-25T05:57:43.400Z,6.200
2023-04-25T05:58:43.177Z,6.900
2023-04-25T05:59:42.928Z,7.300
2023-04-25T06:00:42.839Z,7.100
2023-04-25T06:03:43.780Z,7.800
2023-04-25T06:04:43.028Z,7.300
2023-04-25T06:05:44.252Z,7.900
2023-04-25T06:06:43.191Z,7.800
2023-04-25T06:07:43.011Z,8.400
2023-04-25T06:09:42.655Z,8.200
2023-04-25T06:10:43.577Z,7.600
2023-04-25T06:12:43.115Z,8.300
2023-04-25T06:14:44.947Z,8.300
2023-04-25T06:15:47.707Z,8.400
2023-04-25T06:16:42.893Z,8.100
2023-04-25T06:17:42.806Z,8.700
2023-04-25T06:18:42.916Z,8.300
2023-04-25T06:19:43.187Z,8.700
2023-04-25T06:20:43.100Z,9.600
2023-04-25T06:21:42.904Z,9.100
2023-04-25T06:22:43.471Z,8.900
2023-04-25T06:24:43.028Z,9.100
2023-04-25T06:25:42.960Z,9.800
2023-04-25T06:26:42.879Z,9.700
2023-04-25T06:27:42.669Z,8.800
2023-04-25T06:28:43.599Z,10.300
2023-04-25T06:29:43.396Z,9.400
2023-04-25T06:30:43.509Z,9.300
2023-04-25T06:31:43.601Z,10.300
2023-04-25T06:32:44.917Z,10.700
2023-04-25T06:33:42.993Z,10.400
2023-04-25T06:35:42.587Z,9.400
2023-04-25T06:36:43.697Z,11.000
2023-04-25T06:37:42.467Z,10.400
2023-04-25T06:38:43.576Z,11.000
2023-04-25T06:39:43.611Z,10.100
2023-04-25T06:41:42.736Z,10.100
2023-04-25T06:42:42.527Z,10.300
2023-04-25T06:43:42.667Z,10.900
2023-04-25T06:44:43.543Z,12.400
2023-04-25T06:45:43.796Z,11.600
2023-04-25T06:46:43.003Z,10.900
2023-04-25T06:47:43.487Z,11.100
2023-04-25T06:48:43.533Z,11.200
2023-04-25T06:50:43.332Z,11.100
2023-04-25T06:51:43.294Z,11.300
2023-04-25T06:52:43.814Z,11.700
2023-04-25T06:55:43.242Z,10.500
2023-04-25T06:56:43.196Z,9.600
2023-04-25T06:57:43.057Z,9.600
2023-04-25T06:58:42.969Z,8.900
2023-04-25T07:01:43.217Z,7.500
2023-04-25T07:02:42.968Z,7.200
2023-04-25T07:03:43.825Z,7.000
2023-04-25T07:04:44.245Z,6.400
2023-04-25T07:05:42.565Z,7.500
2023-04-25T07:06:43.462Z,6.700
2023-04-25T07:07:42.804Z,7.800
2023-04-25T07:10:43.013Z,7.100
2023-04-25T07:11:43.081Z,6.700
2023-04-25T07:12:42.884Z,7.600
2023-04-25T07:13:42.881Z,7.100
2023-04-25T07:14:43.149Z,7.300
2023-04-25T07:15:43.028Z,6.300
2023-04-25T07:16:43.164Z,4.900
2023-04-25T07:17:43.436Z,5.300
2023-04-25T07:18:43.539Z,6.100
2023-04-25T07:19:43.628Z,5.300
2023-04-25T07:21:43.612Z,5.400
2023-04-25T07:22:42.898Z,5.800
2023-04-25T07:23:42.785Z,6.000
2023-04-25T07:24:43.060Z,6.300
2023-04-25T07:27:42.987Z,7.000
2023-04-25T07:28:43.106Z,6.500
2023-04-25T07:29:43.033Z,6.800
2023-04-25T07:30:43.130Z,6.900
2023-04-25T07:31:43.301Z,6.700
2023-04-25T07:32:43.673Z,6.200
2023-04-25T07:33:42.646Z,6.700
2023-04-25T07:34:42.764Z,7.200
2023-04-25T07:37:43.233Z,7.700
2023-04-25T07:38:43.225Z,7.000
2023-04-25T07:39:43.074Z,8.200
2023-04-25T07:40:43.208Z,7.700
2023-04-25T07:41:43.291Z,7.200
2023-04-25T07:42:43.387Z,7.700
2023-04-25T07:44:43.139Z,8.200
2023-04-25T07:46:43.060Z,27.400
2023-04-25T07:47:43.061Z,8.600
2023-04-25T07:48:43.185Z,8.200
2023-04-25T07:49:43.410Z,8.100
2023-04-25T07:50:43.501Z,8.100
2023-04-25T07:51:43.524Z,8.900
2023-04-25T07:52:43.614Z,7.800
2023-04-25T07:53:42.628Z,7.600
2023-04-25T07:54:43.527Z,7.500
2023-04-25T07:55:43.547Z,8.100
2023-04-25T07:56:53.200Z,8.200
2023-04-25T07:57:43.483Z,8.500
2023-04-25T07:59:45.886Z,8.200
2023-04-25T08:00:43.119Z,8.600
2023-04-25T08:01:43.136Z,9.900
2023-04-25T08:02:43.564Z,8.500
2023-04-25T08:03:43.142Z,7.900
2023-04-25T08:04:43.479Z,7.600
2023-04-25T08:05:43.575Z,8.900
2023-04-25T08:06:43.891Z,8.600
2023-04-25T08:07:43.118Z,9.400
2023-04-25T08:08:43.176Z,8.400
2023-04-25T08:09:43.217Z,28.500
2023-04-25T08:10:43.597Z,9.500
2023-04-25T08:11:43.825Z,9.600
2023-04-25T08:12:42.751Z,8.800
2023-04-25T08:13:42.551Z,9.200
2023-04-25T08:14:43.558Z,8.400
2023-04-25T08:16:43.106Z,8.700
2023-04-25T08:17:43.498Z,7.400
2023-04-25T08:18:43.697Z,7.900
2023-04-25T08:19:42.747Z,8.300
2023-04-25T08:20:43.239Z,60.900
2023-04-25T08:21:43.257Z,14.600
2023-04-25T08:22:43.520Z,9.600
2023-04-25T08:23:42.904Z,9.700
2023-04-25T08:24:42.847Z,8.800
2023-04-25T08:26:42.653Z,9.700
2023-04-25T08:27:43.626Z,8.500
2023-04-25T08:28:43.500Z,9.600
2023-04-25T08:29:43.492Z,9.400
2023-04-25T08:30:43.567Z,8.900
2023-04-25T08:31:43.717Z,8.500
2023-04-25T08:32:46.151Z,8.300
2023-04-25T08:33:43.513Z,8.600
2023-04-25T08:34:43.551Z,8.300
2023-04-25T08:35:43.443Z,8.700
2023-04-25T08:36:53.284Z,10.000
2023-04-25T08:37:43.141Z,9.300
2023-04-25T08:38:43.111Z,10.000
2023-04-25T08:39:43.307Z,9.700
2023-04-25T08:40:43.325Z,10.100
2023-04-25T08:41:43.156Z,10.000
2023-04-25T08:42:43.093Z,10.100
2023-04-25T08:44:42.841Z,9.200
2023-04-25T08:45:42.732Z,9.300
2023-04-25T08:46:43.886Z,9.400
2023-04-25T08:47:43.246Z,9.900
2023-04-25T08:48:43.654Z,10.000
2023-04-25T08:49:43.760Z,10.100
2023-04-25T08:51:42.632Z,9.800
2023-04-25T08:52:42.712Z,9.700
2023-04-25T08:53:46.133Z,9.300
2023-04-25T08:55:43.848Z,9.300
2023-04-25T08:56:46.372Z,9.600
2023-04-25T08:57:44.269Z,9.300
2023-04-25T08:59:43.938Z,10.300
2023-04-25T09:00:44.234Z,9.100
2023-04-25T09:01:44.526Z,8.800
2023-04-25T09:02:45.360Z,10.000
2023-04-25T09:04:44.738Z,9.500
2023-04-25T09:05:46.654Z,9.700
2023-04-25T09:07:44.550Z,9.400
2023-04-25T09:09:44.370Z,9.100
2023-04-25T09:10:44.194Z,9.200
2023-04-25T09:12:44.169Z,8.200
2023-04-25T09:13:44.643Z,7.400
2023-04-25T09:14:43.832Z,8.200
2023-04-25T09:15:44.146Z,8.100
2023-04-25T09:16:44.528Z,8.000
2023-04-25T09:17:45.062Z,7.000
2023-04-25T09:18:48.946Z,6.900
2023-04-25T09:19:53.822Z,8.800
2023-04-25T09:21:48.397Z,6.300
2023-04-25T09:22:44.461Z,7.000
2023-04-25T09:24:44.180Z,11.000
2023-04-25T09:25:44.210Z,8.200
2023-04-25T09:26:44.140Z,8.100
2023-04-25T09:27:43.999Z,7.700
2023-04-25T09:28:46.296Z,8.500
2023-04-25T09:29:44.123Z,7.000
2023-04-25T09:30:44.034Z,7.200
2023-04-25T09:31:44.167Z,7.500
2023-04-25T09:32:44.790Z,7.200
2023-04-25T09:33:43.864Z,7.400
2023-04-25T09:34:44.284Z,6.200
2023-04-25T09:35:44.414Z,6.300
2023-04-25T09:36:44.582Z,5.500
2023-04-25T09:37:44.067Z,7.700
2023-04-25T09:41:44.022Z,6.900
2023-04-25T09:42:43.962Z,12.200
2023-04-25T09:43:44.175Z,9.000
2023-04-25T09:44:44.178Z,8.500
2023-04-25T09:45:44.308Z,6.000
2023-04-25T09:46:44.562Z,4.900
2023-04-25T09:47:44.074Z,4.800
2023-04-25T09:48:44.381Z,4.000
2023-04-25T09:49:44.280Z,4.000
2023-04-25T09:50:44.201Z,3.800
2023-04-25T09:51:44.560Z,4.100
2023-04-25T09:52:44.632Z,4.000
2023-04-25T09:53:43.803Z,3.900
2023-04-25T09:54:43.740Z,3.900
2023-04-25T09:57:44.531Z,4.200
2023-04-25T09:58:47.026Z,4.100
2023-04-25T09:59:44.106Z,3.900
2023-04-25T10:00:44.319Z,4.800
2023-04-25T10:01:44.717Z,3.600
2023-04-25T10:03:44.346Z,3.500
2023-04-25T10:04:46.943Z,3.800
2023-04-25T10:05:44.288Z,3.500
2023-04-25T10:06:44.199Z,2.700
2023-04-25T10:07:44.291Z,2.200
2023-04-25T10:08:44.190Z,2.600
2023-04-25T10:10:47.082Z,2.700
2023-04-25T10:11:43.907Z,3.000
2023-04-25T10:12:43.936Z,3.100
2023-04-25T10:13:43.987Z,3.300
2023-04-25T10:14:43.948Z,2.900
2023-04-25T10:15:43.972Z,2.700
2023-04-25T10:16:44.267Z,3.200
2023-04-25T10:19:44.436Z,3.200
2023-04-25T10:20:44.740Z,3.300
2023-04-25T10:21:43.602Z,2.900
2023-04-25T10:22:44.638Z,3.200
2023-04-25T10:23:44.455Z,3.200
2023-04-25T10:24:44.743Z,3.500
2023-04-25T10:25:43.550Z,3.300
2023-04-25T10:26:46.731Z,3.500
2023-04-25T10:27:43.600Z,3.400
2023-04-25T10:28:44.480Z,3.000
2023-04-25T10:29:44.411Z,3.300
2023-04-25T10:30:44.271Z,3.300
2023-04-25T10:31:44.738Z,3.000
2023-04-25T10:32:45.654Z,3.400
2023-04-25T10:33:44.495Z,4.100
2023-04-25T10:35:44.295Z,3.000
2023-04-25T10:36:44.424Z,3.200
2023-04-25T10:37:44.283Z,3.100
2023-04-25T10:40:44.281Z,2.900
2023-04-25T10:41:44.125Z,3.000
2023-04-25T10:43:43.799Z,2.800
2023-04-25T10:44:43.838Z,2.800
2023-04-25T10:45:43.596Z,3.300
2023-04-25T10:46:44.716Z,2.900
2023-04-25T10:47:44.426Z,2.800
2023-04-25T10:48:44.945Z,2.800
2023-04-25T10:49:43.922Z,3.400
2023-04-25T10:50:44.164Z,3.300
2023-04-25T10:51:55.600Z,3.300
2023-04-25T10:53:44.119Z,3.900
2023-04-25T10:54:44.819Z,3.500
2023-04-25T10:55:43.716Z,3.800
2023-04-25T10:56:45.412Z,3.800
2023-04-25T10:58:44.499Z,3.200
2023-04-25T10:59:44.407Z,3.800
2023-04-25T11:00:57.408Z,3.100
2023-04-25T11:02:46.623Z,3.200
2023-04-25T11:03:47.322Z,3.300
2023-04-25T11:04:46.545Z,3.000
2023-04-25T11:05:55.403Z,3.400
2023-04-25T11:06:47.152Z,3.000
2023-04-25T11:08:46.800Z,3.200
2023-04-25T11:09:46.875Z,3.100
2023-04-25T11:10:46.048Z,3.100
2023-04-25T11:11:46.200Z,3.100
2023-04-25T11:12:46.246Z,3.400
2023-04-25T11:13:46.342Z,3.300
2023-04-25T11:14:46.451Z,3.300
2023-04-25T11:15:46.584Z,3.200
2023-04-25T11:16:46.736Z,3.500
2023-04-25T11:17:46.880Z,3.100
2023-04-25T11:18:46.933Z,3.200
2023-04-25T11:19:46.174Z,3.000
2023-04-25T11:20:46.131Z,3.200
2023-04-25T11:21:46.253Z,2.800
2023-04-25T11:22:46.344Z,3.000
2023-04-25T11:23:46.459Z,2.700
2023-04-25T11:24:46.609Z,3.000
2023-04-25T11:25:47.740Z,2.800
2023-04-25T11:26:46.792Z,3.200
2023-04-25T11:27:46.909Z,3.000
2023-04-25T11:28:46.063Z,3.000
2023-04-25T11:29:46.113Z,2.500
2023-04-25T11:30:46.248Z,2.900
2023-04-25T11:31:46.361Z,2.700
2023-04-25T11:32:46.592Z,3.000
2023-04-25T11:33:46.573Z,3.000
2023-04-25T11:34:46.682Z,3.100
2023-04-25T11:35:46.800Z,3.100
2023-04-25T11:36:46.881Z,2.600
2023-04-25T11:39:46.240Z,2.800
2023-04-25T11:40:46.272Z,2.300
2023-04-25T11:41:46.383Z,2.400
2023-04-25T11:42:47.008Z,2.300
2023-04-25T11:43:46.887Z,2.200
2023-04-25T11:44:46.749Z,2.600
2023-04-25T11:45:46.853Z,2.400
2023-04-25T11:46:46.945Z,2.400
2023-04-25T11:49:46.746Z,2.200
2023-04-25T11:50:46.392Z,2.400
2023-04-25T11:51:46.503Z,2.400
2023-04-25T11:52:46.598Z,2.300
2023-04-25T11:53:46.691Z,1.900
2023-04-25T11:54:46.792Z,2.600
2023-04-25T11:55:46.907Z,3.000
2023-04-25T11:57:46.127Z,2.200
2023-04-25T11:58:46.262Z,2.500
2023-04-25T11:59:46.797Z,2.400
2023-04-25T12:00:50.283Z,2.700
2023-04-25T12:01:46.711Z,2.800
2023-04-25T12:02:47.285Z,2.600
2023-04-25T12:03:46.880Z,2.500
2023-04-25T12:04:47.989Z,2.200
2023-04-25T12:05:49.612Z,2.600
2023-04-25T12:06:46.099Z,2.500
2023-04-25T12:07:46.217Z,2.500
2023-04-25T12:08:46.648Z,2.300
2023-04-25T12:10:46.576Z,2.000
2023-04-25T12:11:46.660Z,2.300
2023-04-25T12:12:46.736Z,2.100
2023-04-25T12:13:46.905Z,2.200
2023-04-25T12:15:46.149Z,2.300
2023-04-25T12:16:46.447Z,2.400
2023-04-25T12:17:46.569Z,2.100
2023-04-25T12:18:46.484Z,2.800
2023-04-25T12:19:46.577Z,2.300
2023-04-25T12:20:46.664Z,2.600
2023-04-25T12:21:57.822Z,2.300
2023-04-25T12:22:47.012Z,3.100
2023-04-25T12:25:46.624Z,3.100
2023-04-25T12:26:46.625Z,2.900
2023-04-25T12:27:46.540Z,2.600
2023-04-25T12:28:46.613Z,2.600
2023-04-25T12:29:54.060Z,3.500
2023-04-25T12:30:46.779Z,3.200
2023-04-25T12:31:46.933Z,2.700
2023-04-25T12:32:46.547Z,2.800
2023-04-25T12:33:46.715Z,2.400
2023-04-25T12:34:46.228Z,2.900
2023-04-25T12:35:46.268Z,2.800
2023-04-25T12:36:46.685Z,2.600
2023-04-25T12:37:46.709Z,2.500
2023-04-25T12:38:46.595Z,3.000
2023-04-25T12:39:46.730Z,2.500
2023-04-25T12:40:46.792Z,2.800
2023-04-25T12:41:46.935Z,3.000
2023-04-25T12:42:46.043Z,2.700
2023-04-25T12:43:46.166Z,2.800
2023-04-25T12:44:46.268Z,2.900
2023-04-25T12:45:46.368Z,2.800
2023-04-25T12:46:46.521Z,3.400
2023-04-25T12:47:46.604Z,2.600
2023-04-25T12:48:46.739Z,3.100
2023-04-25T12:49:51.191Z,3.100
2023-04-25T12:50:46.896Z,3.500
2023-04-25T12:51:47.028Z,2.700
2023-04-25T12:52:46.153Z,2.900
2023-04-25T12:53:49.405Z,3.000
2023-04-25T12:55:46.448Z,3.000
2023-04-25T12:56:46.552Z,2.900
2023-04-25T12:57:46.721Z,2.900
2023-04-25T12:58:46.766Z,3.200
2023-04-25T12:59:46.889Z,2.800
2023-04-25T13:01:49.291Z,2.700
2023-04-25T13:03:47.060Z,2.900
2023-04-25T13:04:46.847Z,2.900
2023-04-25T13:06:46.706Z,2.800
2023-04-25T13:07:47.577Z,3.100
2023-04-25T13:09:46.395Z,2.600
2023-04-25T13:10:46.316Z,2.700
2023-04-25T13:11:46.691Z,2.600
2023-04-25T13:12:45.841Z,2.900
2023-04-25T13:13:45.795Z,3.400
2023-04-25T13:14:46.375Z,3.100
2023-04-25T13:15:47.047Z,2.900
2023-04-25T13:16:46.621Z,3.200
2023-04-25T13:17:46.758Z,2.900
2023-04-25T13:18:46.809Z,3.000
2023-04-25T13:19:46.973Z,3.100
2023-04-25T13:21:46.177Z,3.200
2023-04-25T13:22:46.336Z,3.300
2023-04-25T13:23:46.343Z,3.500
2023-04-25T13:24:46.465Z,3.600
2023-04-25T13:25:46.560Z,3.200
2023-04-25T13:26:46.680Z,3.100
2023-04-25T13:27:46.556Z,3.100
2023-04-25T13:29:46.301Z,3.200
2023-04-25T13:30:46.231Z,3.400
2023-04-25T13:31:46.235Z,3.600
2023-04-25T13:32:46.379Z,3.500
2023-04-25T13:33:46.586Z,3.300
2023-04-25T13:34:46.096Z,3.300
2023-04-25T13:35:46.206Z,3.100
2023-04-25T13:37:46.183Z,2.900
2023-04-25T13:38:46.734Z,3.000
2023-04-25T13:39:46.583Z,3.600
2023-04-25T13:40:46.719Z,3.000
2023-04-25T13:42:47.055Z,3.300
2023-04-25T13:43:46.094Z,3.200
2023-04-25T13:44:46.030Z,3.200
2023-04-25T13:45:47.797Z,3.200
2023-04-25T13:46:55.623Z,3.300
2023-04-25T13:47:45.780Z,3.300
2023-04-25T13:48:45.663Z,3.000
2023-04-25T13:49:46.489Z,3.400
2023-04-25T13:50:46.579Z,2.900
2023-04-25T13:51:46.865Z,3.600
2023-04-25T13:52:45.805Z,4.000
2023-04-25T13:53:45.714Z,3.400
2023-04-25T13:54:46.004Z,2.900
2023-04-25T13:57:46.023Z,3.200
2023-04-25T13:58:45.934Z,3.200
2023-04-25T14:00:45.898Z,3.800
2023-04-25T14:01:45.984Z,3.400
2023-04-25T14:02:47.113Z,3.800
2023-04-25T14:03:47.040Z,3.500
2023-04-25T14:04:46.390Z,3.700
2023-04-25T14:05:46.474Z,4.400
2023-04-25T14:06:46.382Z,4.000
2023-04-25T14:07:46.334Z,3.600
2023-04-25T14:08:46.413Z,3.900
2023-04-25T14:09:46.227Z,3.600
2023-04-25T14:10:46.060Z,4.400
2023-04-25T14:13:46.488Z,3.400
2023-04-25T14:14:45.563Z,3.900
2023-04-25T14:15:46.467Z,3.400
2023-04-25T14:16:46.859Z,3.500
2023-04-25T14:17:45.854Z,3.700
2023-04-25T14:20:45.781Z,3.900
2023-04-25T14:21:45.577Z,3.700
2023-04-25T14:22:46.436Z,3.700
2023-04-25T14:23:46.249Z,3.700
2023-04-25T14:24:46.564Z,4.100
2023-04-25T14:25:46.476Z,3.600
2023-04-25T14:27:46.042Z,3.800
2023-04-25T14:29:46.029Z,3.900
2023-04-25T14:30:46.035Z,4.100
2023-04-25T14:31:46.236Z,3.600
2023-04-25T14:32:46.564Z,3.600
2023-04-25T14:33:45.561Z,4.200
2023-04-25T14:34:45.840Z,3.500
2023-04-25T14:35:45.610Z,3.800
2023-04-25T14:36:46.402Z,4.400
2023-04-25T14:37:46.213Z,4.000
2023-04-25T14:39:46.537Z,4.400
2023-04-25T14:40:46.436Z,4.300
2023-04-25T14:41:46.259Z,4.200
2023-04-25T14:42:46.148Z,3.900
2023-04-25T14:43:45.947Z,3.600
2023-04-25T14:44:46.281Z,3.800
2023-04-25T14:45:46.102Z,3.600
2023-04-25T14:46:45.984Z,4.300
2023-04-25T14:47:46.498Z,3.600
2023-04-25T14:48:46.979Z,3.800
2023-04-25T14:49:46.064Z,4.000
2023-04-25T14:51:45.658Z,3.600
2023-04-25T14:52:46.242Z,4.000
2023-04-25T14:53:46.508Z,3.800
2023-04-25T14:54:45.804Z,3.700
2023-04-25T14:56:46.387Z,3.600
2023-04-25T14:57:46.200Z,3.600
2023-04-25T14:58:45.995Z,3.400
2023-04-25T15:00:45.684Z,3.500
2023-04-25T15:01:46.009Z,3.700
2023-04-25T15:02:46.223Z,3.700
2023-04-25T15:03:46.265Z,3.700
2023-04-25T15:04:46.496Z,3.900
2023-04-25T15:06:46.418Z,4.300
2023-04-25T15:07:46.229Z,4.000
2023-04-25T15:08:46.083Z,3.700
2023-04-25T15:10:45.739Z,4.100
2023-04-25T15:11:45.579Z,3.800
2023-04-25T15:12:47.792Z,3.500
2023-04-25T15:13:45.863Z,4.000
2023-04-25T15:14:46.850Z,4.200
2023-04-25T15:15:46.988Z,4.400
2023-04-25T15:16:47.117Z,4.100
2023-04-25T15:19:46.345Z,3.800
2023-04-25T15:20:46.126Z,3.500
2023-04-25T15:21:45.944Z,3.400
2023-04-25T15:22:45.712Z,4.400
2023-04-25T15:23:46.583Z,4.100
2023-04-25T15:24:45.651Z,4.200
2023-04-25T15:25:46.650Z,4.100
2023-04-25T15:26:46.501Z,4.400
2023-04-25T15:28:45.610Z,4.300
2023-04-25T15:29:46.430Z,3.800
2023-04-25T15:30:46.251Z,5.000
2023-04-25T15:31:46.199Z,4.000
2023-04-25T15:32:46.429Z,4.700
2023-04-25T15:34:48.147Z,4.100
2023-04-25T15:35:46.058Z,4.800
2023-04-25T15:36:45.923Z,4.700